Flight Track Log - Related Links

Times and Time Zones

All times are in EST time to prevent confusion due to time zone crossing. See the PCH458 flight status page for this flight to view local times or setup timezone preferences in your user account.

Time Position Orientation Groundspeed Altitude Reporting Facility
EST Latitude Longitude Course Direction KTS MPH feet Rate Location/Type
Thu 08:38:20 AM 48.3500 -89.2833 240° Southwest 100 115 1,300  Level Winnipeg Center
Thu 08:39:20 AM 48.3333 -89.3667 253° West 150 173 3,300 2,100 Climbing Winnipeg Center
Thu 08:40:20 AM 48.3167 -89.4000 233° Southwest 130 150 5,500 2,050 Climbing Winnipeg Center
Thu 08:41:20 AM 48.2833 -89.4500 225° Southwest 140 161 7,400 1,850 Climbing Winnipeg Center
Thu 08:42:20 AM 48.2667 -89.5000 243° Southwest 150 173 9,200 1,750 Climbing Winnipeg Center
Thu 08:43:00 AM 48.0485 -90.0539 240° Southwest  Level FlightAware Approximate
Thu 08:43:20 AM 48.2500 -89.5500 243° Southwest 150 173 10,900  Level Winnipeg Center
Thu 08:44:20 AM 48.2333 -89.6000 243° Southwest 160 184 12,700 1,650 Climbing Winnipeg Center
Thu 08:45:20 AM 48.2000 -89.6833 239° Southwest 170 196 14,200 1,650 Climbing Winnipeg Center
Thu 08:46:20 AM 48.1667 -89.7500 233° Southwest 180 207 16,000 1,800 Climbing Winnipeg Center
Thu 08:47:20 AM 48.1500 -89.8167 249° West 200 230 17,800 1,500 Climbing Winnipeg Center
Thu 08:48:20 AM 48.1167 -89.8833 233° Southwest 200 230 19,000 1,500 Climbing Winnipeg Center
Thu 08:49:20 AM 48.0833 -89.9500 233° Southwest 210 242 20,800 1,650 Climbing Winnipeg Center
Thu 08:50:20 AM 48.0500 -90.0333 239° Southwest 210 242 22,300 1,333 Climbing Winnipeg Center
Thu 08:51:17 AM 48.0425 -90.1314 264° West 215 247 23,400 857 Climbing Minneapolis Center
Thu 08:52:19 AM 48.0072 -90.2128 237° Southwest 227 261 24,000 293 Climbing Minneapolis Center
Thu 08:53:20 AM 47.9658 -90.3089 237° Southwest 258 297 24,000  Level Minneapolis Center
Thu 08:54:22 AM 47.9197 -90.4156 237° Southwest 287 330 24,000  Level Minneapolis Center
Thu 08:55:23 AM 47.8728 -90.5228 237° Southwest 303 349 24,000  Level Minneapolis Center
Thu 08:56:25 AM 47.8269 -90.6308 238° Southwest 308 354 24,000  Level Minneapolis Center
Thu 08:57:26 AM 47.7781 -90.7389 236° Southwest 313 360 24,000  Level Minneapolis Center
Thu 08:58:28 AM 47.7306 -90.8494 237° Southwest 316 364 24,000  Level Minneapolis Center
Thu 08:59:30 AM 47.6822 -90.9589 237° Southwest 317 365 24,000  Level Minneapolis Center
Thu 09:00:31 AM 47.6231 -91.0911 236° Southwest 319 367 24,000  Level Minneapolis Center
Thu 09:01:33 AM 47.5733 -91.2003 236° Southwest 321 369 24,000  Level Minneapolis Center
Thu 09:02:34 AM 47.5244 -91.3119 237° Southwest 323 372 24,000  Level Minneapolis Center
Thu 09:03:36 AM 47.4747 -91.4217 236° Southwest 323 372 24,000  Level Minneapolis Center
Thu 09:04:37 AM 47.4250 -91.5336 237° Southwest 325 374 24,000  Level Minneapolis Center
Thu 09:05:39 AM 47.3744 -91.6450 236° Southwest 326 375 24,000  Level Minneapolis Center
Thu 09:06:40 AM 47.3244 -91.7564 237° Southwest 326 375 24,000  Level Minneapolis Center
Thu 09:07:42 AM 47.2728 -91.8669 235° Southwest 327 376 24,000  Level Minneapolis Center
Thu 09:08:44 AM 47.2111 -92.0008 236° Southwest 328 377 24,000  Level Minneapolis Center
Thu 09:09:45 AM 47.1592 -92.1133 236° Southwest 332 382 24,000  Level Minneapolis Center
Thu 09:10:47 AM 47.1072 -92.2261 236° Southwest 332 382 24,000  Level Minneapolis Center
Thu 09:11:48 AM 47.0556 -92.3372 236° Southwest 331 381 24,000  Level Minneapolis Center
Thu 09:12:50 AM 47.0039 -92.4489 236° Southwest 330 380 24,000  Level Minneapolis Center
Thu 09:13:51 AM 46.9517 -92.5622 236° Southwest 332 382 24,000  Level Minneapolis Center
Thu 09:14:53 AM 46.9000 -92.6728 236° Southwest 331 381 24,000  Level Minneapolis Center
Thu 09:15:55 AM 46.8472 -92.7825 235° Southwest 330 380 24,000  Level Minneapolis Center
Thu 09:16:56 AM 46.7958 -92.8928 236° Southwest 329 379 24,000  Level Minneapolis Center
Thu 09:17:58 AM 46.7333 -93.0244 235° Southwest 328 377 24,000  Level Minneapolis Center
Thu 09:19:00 AM 46.6817 -93.1336 235° Southwest 328 377 24,000  Level Minneapolis Center
Thu 09:20:01 AM 46.6286 -93.2411 234° Southwest 327 376 24,000  Level Minneapolis Center
Thu 09:21:03 AM 46.5758 -93.3522 235° Southwest 332 382 24,000  Level Minneapolis Center
Thu 09:22:04 AM 46.5231 -93.4614 235° Southwest 331 381 24,000  Level Minneapolis Center
Thu 09:23:06 AM 46.4700 -93.5706 235° Southwest 331 381 24,000  Level Minneapolis Center
Thu 09:24:07 AM 46.4175 -93.6808 235° Southwest 332 382 24,000  Level Minneapolis Center
Thu 09:25:09 AM 46.3633 -93.7903 234° Southwest 333 383 24,000  Level Minneapolis Center
Thu 09:26:11 AM 46.2986 -93.9211 234° Southwest 333 383 24,000  Level Minneapolis Center
Thu 09:27:12 AM 46.2450 -94.0314 235° Southwest 335 386 24,000  Level Minneapolis Center
Thu 09:28:14 AM 46.1950 -94.1328 235° Southwest 332 382 24,000  Level Minneapolis Center
Thu 09:29:16 AM 46.1406 -94.2403 234° Southwest 332 382 24,000  Level Minneapolis Center
Thu 09:30:17 AM 46.0861 -94.3483 234° Southwest 333 383 24,000  Level Minneapolis Center
Thu 09:31:19 AM 46.0217 -94.4781 234° Southwest 334 384 24,000  Level Minneapolis Center
Thu 09:32:21 AM 45.9681 -94.5850 234° Southwest 332 382 24,000  Level Minneapolis Center
Thu 09:33:22 AM 45.9136 -94.6917 234° Southwest 332 382 24,000  Level Minneapolis Center
Thu 09:34:24 AM 45.8594 -94.7992 234° Southwest 332 382 24,000  Level Minneapolis Center
Thu 09:35:25 AM 45.8047 -94.9067 234° Southwest 333 383 24,000  Level Minneapolis Center
Thu 09:36:27 AM 45.7500 -95.0136 234° Southwest 334 384 24,000  Level Minneapolis Center
Thu 09:37:29 AM 45.6931 -95.1269 234° Southwest 332 382 24,000  Level Minneapolis Center
Thu 09:38:31 AM 45.6389 -95.2311 233° Southwest 328 377 24,000  Level Minneapolis Center
Thu 09:39:32 AM 45.5739 -95.3567 234° Southwest 329 379 24,000  Level Minneapolis Center
Thu 09:40:34 AM 45.5203 -95.4608 234° Southwest 327 376 24,000  Level Minneapolis Center
Thu 09:41:36 AM 45.4661 -95.5636 233° Southwest 325 374 24,000  Level Minneapolis Center
Thu 09:42:37 AM 45.4122 -95.6664 233° Southwest 325 374 24,000  Level Minneapolis Center
Thu 09:43:39 AM 45.3597 -95.7694 234° Southwest 323 372 24,000  Level Minneapolis Center
Thu 09:44:40 AM 45.3067 -95.8689 233° Southwest 321 369 24,000  Level Minneapolis Center
Thu 09:45:42 AM 45.2539 -95.9711 234° Southwest 322 371 24,000  Level Minneapolis Center
Thu 09:46:44 AM 45.1883 -96.0928 233° Southwest 323 372 24,000  Level Minneapolis Center
Thu 09:47:45 AM 45.1331 -96.1961 233° Southwest 329 379 24,000  Level Minneapolis Center
Thu 09:48:47 AM 45.0786 -96.2986 233° Southwest 327 376 24,000  Level Minneapolis Center
Thu 09:49:49 AM 45.0228 -96.4028 233° Southwest 333 383 24,000  Level Minneapolis Center
Thu 09:50:50 AM 44.9664 -96.5058 232° Southwest 333 383 24,000  Level Minneapolis Center
Thu 09:51:52 AM 44.9111 -96.6097 233° Southwest 334 384 24,000  Level Minneapolis Center
Thu 09:52:53 AM 44.8431 -96.7339 232° Southwest 335 386 24,000  Level Minneapolis Center
Thu 09:53:55 AM 44.7872 -96.8369 233° Southwest 334 384 24,000  Level Minneapolis Center
Thu 09:54:57 AM 44.7317 -96.9403 233° Southwest 333 383 24,000  Level Minneapolis Center
Thu 09:55:58 AM 44.6750 -97.0425 232° Southwest 334 384 24,000  Level Minneapolis Center
Thu 09:57:00 AM 44.6183 -97.1450 232° Southwest 334 384 24,000  Level Minneapolis Center
Thu 09:58:01 AM 44.5622 -97.2469 232° Southwest 333 383 24,000  Level Minneapolis Center
Thu 09:59:03 AM 44.5053 -97.3483 232° Southwest 332 382 24,000  Level Minneapolis Center
Thu 10:00:04 AM 44.4375 -97.4703 232° Southwest 333 383 24,000  Level Minneapolis Center
Thu 10:01:06 AM 44.3817 -97.5725 233° Southwest 332 382 24,000  Level Minneapolis Center
Thu 10:02:07 AM 44.3239 -97.6731 231° Southwest 333 383 24,000  Level Minneapolis Center
Thu 10:03:09 AM 44.2669 -97.7744 232° Southwest 333 383 24,000  Level Minneapolis Center
Thu 10:04:10 AM 44.2103 -97.8744 232° Southwest 330 380 24,000  Level Minneapolis Center
Thu 10:05:12 AM 44.1542 -97.9753 232° Southwest 331 381 24,000  Level Minneapolis Center
Thu 10:06:13 AM 44.0964 -98.0750 231° Southwest 331 381 24,000  Level Minneapolis Center
Thu 10:07:15 AM 44.0297 -98.1953 232° Southwest 329 379 24,000  Level Minneapolis Center
Thu 10:08:16 AM 43.9711 -98.2942 231° Southwest 332 382 24,000  Level Minneapolis Center
Thu 10:09:18 AM 43.9136 -98.3925 231° Southwest 330 380 24,000  Level Minneapolis Center
Thu 10:10:20 AM 43.8578 -98.4908 232° Southwest 327 376 24,000  Level Minneapolis Center
Thu 10:11:21 AM 43.8008 -98.5903 232° Southwest 328 377 24,000  Level Minneapolis Center
Thu 10:12:23 AM 43.7481 -98.6833 232° Southwest 328 377 24,000  Level Minneapolis Center
Thu 10:13:24 AM 43.6792 -98.8014 231° Southwest 328 377 24,000  Level Minneapolis Center
Thu 10:14:26 AM 43.6217 -98.8969 230° Southwest 325 374 24,000  Level Minneapolis Center
Thu 10:15:27 AM 43.5658 -98.9944 232° Southwest 324 373 24,000  Level Minneapolis Center
Thu 10:16:29 AM 43.5081 -99.0914 231° Southwest 326 375 24,000  Level Minneapolis Center
Thu 10:17:30 AM 43.4508 -99.1900 231° Southwest 328 377 24,000  Level Minneapolis Center
Thu 10:18:32 AM 43.3931 -99.2850 230° Southwest 325 374 24,000  Level Minneapolis Center
Thu 10:19:34 AM 43.3361 -99.3808 231° Southwest 324 373 24,000  Level Minneapolis Center
Thu 10:20:35 AM 43.2794 -99.4772 231° Southwest 325 374 24,000  Level Minneapolis Center
Thu 10:21:37 AM 43.2106 -99.5922 231° Southwest 325 374 24,000  Level Minneapolis Center
Thu 10:22:38 AM 43.1539 -99.6872 231° Southwest 323 372 24,000  Level Minneapolis Center
Thu 10:23:40 AM 43.0967 -99.7811 230° Southwest 322 371 24,000  Level Minneapolis Center
Thu 10:24:42 AM 43.0394 -99.8772 231° Southwest 324 373 24,000  Level Minneapolis Center
Thu 10:25:43 AM 42.9822 -99.9694 230° Southwest 322 371 24,000  Level Minneapolis Center
Thu 10:26:45 AM 42.9253 -100.0628 230° Southwest 321 369 24,000  Level Minneapolis Center
Thu 10:27:47 AM 42.8678 -100.1567 230° Southwest 321 369 24,000  Level Minneapolis Center
Thu 10:28:48 AM 42.8103 -100.2500 230° Southwest 322 371 24,000  Level Minneapolis Center
Thu 10:29:50 AM 42.7494 -100.3511 231° Southwest 320 368 24,000  Level Minneapolis Center
Thu 10:30:52 AM 42.6922 -100.4439 230° Southwest 320 368 24,000  Level Minneapolis Center
Thu 10:31:53 AM 42.6350 -100.5367 230° Southwest 321 369 24,000  Level Minneapolis Center
Thu 10:32:55 AM 42.5656 -100.6483 230° Southwest 321 369 24,000  Level Minneapolis Center
Thu 10:33:57 AM 42.5083 -100.7392 230° Southwest 320 368 24,000  Level Minneapolis Center
Thu 10:34:35 AM 42.4867 -100.7736 230° Southwest 319 367 24,000  Level Denver Center
Thu 10:35:37 AM 42.4144 -100.8903 230° Southwest 317 365 24,000  Level Denver Center
Thu 10:36:39 AM 42.3594 -100.9767 229° Southwest 317 365 24,000  Level Denver Center
Thu 10:37:41 AM 42.2961 -101.0783 230° Southwest 317 365 24,000  Level Denver Center
Thu 10:38:43 AM 42.2425 -101.1631 229° Southwest 313 360 24,000  Level Denver Center
Thu 10:39:44 AM 42.1794 -101.2619 229° Southwest 311 358 24,000  Level Denver Center
Thu 10:40:46 AM 42.1256 -101.3464 229° Southwest 312 359 24,000  Level Denver Center
Thu 10:41:48 AM 42.0814 -101.4172 230° Southwest 311 358 24,000  Level Denver Center
Thu 10:42:50 AM 42.0089 -101.5300 229° Southwest 312 359 24,000  Level Denver Center
Thu 10:43:52 AM 41.9467 -101.6272 229° Southwest 308 354 24,000  Level Denver Center
Thu 10:44:54 AM 41.8922 -101.7111 229° Southwest 310 357 24,000  Level Denver Center
Thu 10:45:56 AM 41.8383 -101.7944 229° Southwest 310 357 24,000  Level Denver Center
Thu 10:46:58 AM 41.7764 -101.8906 229° Southwest 307 353 24,000  Level Denver Center
Thu 10:48:00 AM 41.7217 -101.9747 229° Southwest 312 359 24,000  Level Denver Center
Thu 10:49:02 AM 41.6611 -102.0686 229° Southwest 302 348 24,000  Level Denver Center
Thu 10:50:04 AM 41.6067 -102.1506 228° Southwest 305 351 24,000  Level Denver Center
Thu 10:51:06 AM 41.5439 -102.2456 229° Southwest 307 353 24,000  Level Denver Center
Thu 10:52:08 AM 41.4911 -102.3272 229° Southwest 304 350 24,000  Level Denver Center
Thu 10:53:10 AM 41.4275 -102.4219 228° Southwest 307 353 24,000  Level Denver Center
Thu 10:54:12 AM 41.3756 -102.5028 229° Southwest 302 348 24,000  Level Denver Center
Thu 10:55:14 AM 41.3117 -102.5975 228° Southwest 307 353 24,000  Level Denver Center
Thu 10:56:16 AM 41.2547 -102.6836 229° Southwest 302 348 24,000  Level Denver Center
Thu 10:57:18 AM 41.1972 -102.7714 229° Southwest 302 348 24,000  Level Denver Center
Thu 10:58:20 AM 41.1417 -102.8517 227° Southwest 307 353 24,000  Level Denver Center
Thu 10:59:22 AM 41.0806 -102.9447 229° Southwest 300 345 24,000  Level Denver Center
Thu 11:00:24 AM 41.0228 -103.0303 228° Southwest 301 346 24,000 -288 Level Denver Center
Thu 11:01:27 AM 40.9686 -103.1092 228° Southwest 302 348 23,400 -864 Descending Denver Center
Thu 11:02:29 AM 40.9142 -103.1900 228° Southwest 300 345 22,200 -1,161 Descending Denver Center
Thu 11:03:31 AM 40.8597 -103.2708 228° Southwest 295 339 21,000 -1,147 Descending Denver Center
Thu 11:04:45 AM 40.7958 -103.3656 228° Southwest 289 333 19,600 -1,235 Descending Denver Center
Thu 11:05:47 AM 40.7311 -103.4592 228° Southwest 288 331 18,200 -1,016 Descending Denver Center
Thu 11:06:49 AM 40.6792 -103.5378 229° Southwest 285 328 17,500 -794 Descending Denver Center
Thu 11:08:03 AM 40.6267 -103.6139 228° Southwest 282 325 16,400 -1,226 Descending Denver Center
Thu 11:09:06 AM 40.5653 -103.7019 227° Southwest 272 313 14,700 -1,440 Descending Denver Center
Thu 11:10:08 AM 40.5142 -103.7736 227° Southwest 270 311 13,400 -1,210 Descending Denver Center
Thu 11:11:10 AM 40.4586 -103.8572 229° Southwest 256 295 12,200 -1,065 Descending Denver Center
Thu 11:12:12 AM 40.4356 -103.9378 249° West 238 274 11,200 -968 Descending Denver Center
Thu 11:13:14 AM 40.4189 -104.0156 254° West 225 259 10,200 -581 Descending Denver Center
Thu 11:14:16 AM 40.3972 -104.1019 252° West 232 267 10,000 -97 Descending Denver Center
Thu 11:15:18 AM 40.3783 -104.1808 253° West 229 264 10,000  Level Denver Center
Thu 11:16:20 AM 40.3583 -104.2658 253° West 228 262 10,000 -290 Level Denver Center
Thu 11:17:22 AM 40.3419 -104.3325 252° West 228 262 9,400 -484 Descending Denver Center
Thu 11:18:24 AM 40.3217 -104.4231 254° West 214 246 9,000 -194 Descending Denver Center
Thu 11:19:26 AM 40.3033 -104.4969 252° West 213 245 9,000  Level Denver Center
Thu 11:20:28 AM 40.2814 -104.5794 251° West 222 255 9,000  Level Denver Center
Thu 11:21:30 AM 40.2464 -104.6500 237° Southwest 232 267 9,000  Level Denver Center
Thu 11:22:33 AM 40.2061 -104.7236 234° Southwest 232 267 9,000  Level Denver Center
Thu 11:23:35 AM 40.1689 -104.7917 234° Southwest 232 267 9,000  Level Denver Center
Thu 11:24:37 AM 40.1292 -104.8653 235° Southwest 231 266 9,000  Level Denver Center
Thu 11:25:39 AM 40.0931 -104.9333 235° Southwest 229 264 9,000 -97 Level Denver Center
Thu 11:26:41 AM 40.0564 -105.0081 237° Southwest 227 261 8,800 -484 Descending Denver Center
Thu 11:27:43 AM 40.0256 -105.0681 236° Southwest 205 236 8,000 -581 Descending Denver Center
Thu 11:28:45 AM 39.9806 -105.0353 151° Southeast 198 228 7,600 -484 Descending Denver Center
Thu 11:29:47 AM 39.9386 -104.9900 140° Southeast 198 228 7,000 -290 Descending Denver Center
Thu 11:30:49 AM 39.8983 -104.9419 138° Southeast 197 227 7,000  Level Denver Center
Thu 11:31:51 AM 39.8525 -104.9036 147° Southeast 187 215 7,000  Level Denver Center
Thu 11:32:53 AM 39.8183 -104.9419 221° Southwest 174 200 7,000  Level Denver Center
Thu 11:33:55 AM 39.8447 -104.9917 305° West 152 175 7,000 -48 Level Denver Center
Thu 11:34:57 AM 39.8656 -105.0358 302° West 145 167 6,900 -387 Descending Denver Center
Thu 11:35:59 AM 39.8842 -105.0692 306° West 106 122 6,200 -581 Descending Denver Center
Thu 11:37:01 AM 39.8992 -105.0972 305° West 96 110 5,700 -484 Descending Denver Center

Login

Don't have an account? Register now (free) for customized features, flight alerts, and more!